Time;durP1;ratioP1;P1;durP2;ratioP2;P2;SDS_P1;SDS_P2;PMS_P1;PMS_P2;Temp;Humidity;BMP_temperature;BMP_pressure;BME280_temperature;BME280_humidity;BME280_pressure;Samples;Min_cycle;Max_cycle;Signal;HPM_P1;HPM_P2
2021/04/12 00:00:23;;;;;;;;;;;20.80;36.00;;;;;;500413;237;986;-46
2021/04/12 00:02:24;;;;;;;;;;;20.80;36.00;;;;;;500255;237;1277;-46
2021/04/12 00:04:26;;;;;;;;;;;20.80;36.00;;;;;;500458;237;2179;-46
2021/04/12 00:06:27;;;;;;;;;;;20.90;36.00;;;;;;500385;237;1719;-46
2021/04/12 00:08:28;;;;;;;;;;;20.90;36.00;;;;;;500363;237;1030;-46
2021/04/12 00:10:29;;;;;;;;;;;20.90;36.10;;;;;;500399;237;1067;-46
2021/04/12 00:12:31;;;;;;;;;;;20.90;36.00;;;;;;500356;237;1230;-46
2021/04/12 00:14:32;;;;;;;;;;;20.90;36.00;;;;;;500395;237;1073;-45
2021/04/12 00:16:33;;;;;;;;;;;20.90;36.00;;;;;;500357;237;1264;-46
2021/04/12 00:18:34;;;;;;;;;;;20.90;36.00;;;;;;500603;237;1027;-46
2021/04/12 00:20:36;;;;;;;;;;;20.90;36.00;;;;;;500403;237;1077;-45
2021/04/12 00:22:37;;;;;;;;;;;21.00;36.00;;;;;;500306;237;1247;-46
2021/04/12 00:24:38;;;;;;;;;;;20.90;35.90;;;;;;500640;237;2196;-46
2021/04/12 00:26:39;;;;;;;;;;;20.90;35.90;;;;;;500482;234;1288;-45
2021/04/12 00:28:41;;;;;;;;;;;20.90;35.90;;;;;;500545;237;1067;-46
2021/04/12 00:30:42;;;;;;;;;;;20.90;35.90;;;;;;500353;237;1085;-46
2021/04/12 00:32:43;;;;;;;;;;;21.00;36.00;;;;;;500589;237;1025;-45
2021/04/12 00:34:45;;;;;;;;;;;20.90;35.90;;;;;;500391;237;1043;-45
2021/04/12 00:36:46;;;;;;;;;;;21.00;36.00;;;;;;500538;237;1085;-46
2021/04/12 00:38:47;;;;;;;;;;;21.00;36.00;;;;;;500614;237;1086;-46
2021/04/12 00:40:48;;;;;;;;;;;21.00;35.90;;;;;;500591;237;1111;-46
2021/04/12 00:42:50;;;;;;;;;;;21.00;36.00;;;;;;500413;237;1212;-46
2021/04/12 00:44:51;;;;;;;;;;;21.00;35.90;;;;;;500518;237;2184;-45
2021/04/12 00:46:52;;;;;;;;;;;21.00;36.00;;;;;;500364;237;1075;-45
2021/04/12 00:48:54;;;;;;;;;;;21.00;36.00;;;;;;500447;237;1062;-45
2021/04/12 00:50:55;;;;;;;;;;;21.00;35.90;;;;;;500522;237;1044;-46
2021/04/12 00:52:56;;;;;;;;;;;21.00;35.90;;;;;;500348;237;1032;-45
2021/04/12 00:54:57;;;;;;;;;;;21.00;35.90;;;;;;500412;237;1063;-46
2021/04/12 00:56:59;;;;;;;;;;;21.00;36.00;;;;;;500396;237;1265;-46
2021/04/12 00:59:00;;;;;;;;;;;21.00;35.90;;;;;;500405;237;1056;-46
2021/04/12 01:01:01;;;;;;;;;;;21.00;36.00;;;;;;500444;237;1077;-46
2021/04/12 01:03:03;;;;;;;;;;;21.00;36.00;;;;;;500453;237;2136;-46
2021/04/12 01:05:04;;;;;;;;;;;21.00;36.00;;;;;;500559;237;1036;-46
2021/04/12 01:07:05;;;;;;;;;;;21.00;36.00;;;;;;500339;237;1294;-46
2021/04/12 01:09:06;;;;;;;;;;;21.00;36.00;;;;;;500378;237;1050;-46
2021/04/12 01:11:08;;;;;;;;;;;21.00;36.00;;;;;;500666;237;1129;-46
2021/04/12 01:13:09;;;;;;;;;;;21.10;36.00;;;;;;500460;237;1180;-46
2021/04/12 01:15:12;;;;;;;;;;;21.10;35.90;;;;;;500592;237;1072;-46
2021/04/12 01:17:12;;;;;;;;;;;21.10;36.00;;;;;;500454;237;1564;-46
2021/04/12 01:19:13;;;;;;;;;;;21.10;36.00;;;;;;500596;237;986;-46
2021/04/12 01:21:14;;;;;;;;;;;21.10;36.00;;;;;;500413;237;1226;-46
2021/04/12 01:23:15;;;;;;;;;;;21.10;36.00;;;;;;500344;237;2179;-46
2021/04/12 01:25:17;;;;;;;;;;;21.10;36.00;;;;;;500486;237;997;-46
2021/04/12 01:27:18;;;;;;;;;;;21.10;36.00;;;;;;500371;237;1174;-46
2021/04/12 01:29:19;;;;;;;;;;;21.10;36.00;;;;;;500423;237;1145;-46
2021/04/12 01:31:20;;;;;;;;;;;21.10;35.90;;;;;;500344;237;1113;-46
2021/04/12 01:33:22;;;;;;;;;;;21.20;35.90;;;;;;500411;237;1125;-46
2021/04/12 01:35:23;;;;;;;;;;;21.20;35.90;;;;;;500495;237;1079;-46
2021/04/12 01:37:24;;;;;;;;;;;21.20;35.90;;;;;;500316;237;1196;-46
2021/04/12 01:39:26;;;;;;;;;;;21.20;35.90;;;;;;500368;237;1039;-46
2021/04/12 01:41:27;;;;;;;;;;;21.20;35.90;;;;;;500443;237;1187;-46
2021/04/12 01:43:28;;;;;;;;;;;21.20;36.00;;;;;;500427;237;2251;-46
2021/04/12 01:45:30;;;;;;;;;;;21.20;36.00;;;;;;500382;237;1181;-46
2021/04/12 01:47:31;;;;;;;;;;;21.10;36.00;;;;;;500398;237;1613;-46
2021/04/12 01:49:32;;;;;;;;;;;21.20;36.00;;;;;;500477;237;1056;-46
2021/04/12 01:51:33;;;;;;;;;;;21.10;36.00;;;;;;500497;237;1164;-46
2021/04/12 01:53:35;;;;;;;;;;;21.20;36.10;;;;;;500387;237;1021;-46
2021/04/12 01:55:36;;;;;;;;;;;21.10;35.90;;;;;;500612;237;1035;-46
2021/04/12 01:57:37;;;;;;;;;;;20.70;36.60;;;;;;500330;237;1336;-46
2021/04/12 01:59:39;;;;;;;;;;;20.20;37.70;;;;;;500543;237;1008;-46
2021/04/12 02:01:40;;;;;;;;;;;19.80;38.60;;;;;;500379;237;1165;-46
2021/04/12 02:03:41;;;;;;;;;;;19.50;39.20;;;;;;500362;237;2188;-46
2021/04/12 02:05:42;;;;;;;;;;;19.30;39.70;;;;;;500369;237;1157;-46
2021/04/12 02:07:44;;;;;;;;;;;19.20;40.00;;;;;;500469;237;1084;-45
2021/04/12 02:09:45;;;;;;;;;;;19.00;40.20;;;;;;500384;237;1059;-46
2021/04/12 02:11:46;;;;;;;;;;;18.90;40.40;;;;;;500322;237;1092;-46
2021/04/12 02:13:47;;;;;;;;;;;18.80;40.70;;;;;;500477;237;1156;-46
2021/04/12 02:15:49;;;;;;;;;;;18.70;40.80;;;;;;500684;237;973;-45
2021/04/12 02:17:50;;;;;;;;;;;18.70;41.00;;;;;;500364;237;1073;-45
2021/04/12 02:19:51;;;;;;;;;;;18.60;41.00;;;;;;500429;237;1216;-45
2021/04/12 02:21:53;;;;;;;;;;;18.60;41.20;;;;;;500875;237;1072;-45
2021/04/12 02:23:54;;;;;;;;;;;18.50;41.20;;;;;;500502;237;2128;-45
2021/04/12 02:25:55;;;;;;;;;;;18.50;41.30;;;;;;500743;237;1027;-45
2021/04/12 02:27:57;;;;;;;;;;;18.40;41.50;;;;;;500314;237;1158;-45
2021/04/12 02:29:58;;;;;;;;;;;18.40;41.50;;;;;;500515;237;1054;-45
2021/04/12 02:31:59;;;;;;;;;;;18.30;41.50;;;;;;500460;237;1161;-45
2021/04/12 02:34:00;;;;;;;;;;;18.40;41.60;;;;;;500495;237;1097;-45
2021/04/12 02:36:02;;;;;;;;;;;18.30;41.60;;;;;;500354;237;1218;-45
2021/04/12 02:38:03;;;;;;;;;;;18.30;41.70;;;;;;500341;237;1056;-46
2021/04/12 02:40:04;;;;;;;;;;;18.20;41.80;;;;;;500504;237;1069;-45
2021/04/12 02:42:05;;;;;;;;;;;18.20;41.80;;;;;;500567;237;1190;-45
2021/04/12 02:44:07;;;;;;;;;;;18.20;41.90;;;;;;500412;237;2200;-45
2021/04/12 02:46:08;;;;;;;;;;;18.20;42.00;;;;;;500378;237;1139;-45
2021/04/12 02:48:09;;;;;;;;;;;18.10;42.00;;;;;;500383;237;1093;-45
2021/04/12 02:50:11;;;;;;;;;;;18.10;42.00;;;;;;500525;237;1043;-45
2021/04/12 02:52:12;;;;;;;;;;;18.10;42.00;;;;;;500254;237;1183;-45
2021/04/12 02:54:13;;;;;;;;;;;18.10;42.00;;;;;;500566;237;1084;-45
2021/04/12 02:56:14;;;;;;;;;;;18.10;42.10;;;;;;500411;237;1046;-45
2021/04/12 02:58:16;;;;;;;;;;;18.00;42.10;;;;;;500373;237;1164;-45
2021/04/12 03:00:17;;;;;;;;;;;18.00;42.20;;;;;;500872;237;1224;-45
2021/04/12 03:02:18;;;;;;;;;;;18.00;42.20;;;;;;500384;237;1201;-45
2021/04/12 03:04:20;;;;;;;;;;;18.00;42.20;;;;;;500377;237;2141;-45
2021/04/12 03:06:21;;;;;;;;;;;18.00;42.20;;;;;;500403;237;1103;-45
2021/04/12 03:08:22;;;;;;;;;;;18.00;42.30;;;;;;500437;237;1110;-45
2021/04/12 03:10:23;;;;;;;;;;;17.90;42.20;;;;;;500631;237;1084;-45
2021/04/12 03:12:25;;;;;;;;;;;17.90;42.30;;;;;;500406;237;1251;-45
2021/04/12 03:14:26;;;;;;;;;;;17.90;42.40;;;;;;500428;237;1286;-45
2021/04/12 03:16:28;;;;;;;;;;;17.90;42.30;;;;;;500852;237;1118;-45
2021/04/12 03:18:29;;;;;;;;;;;17.90;42.30;;;;;;500398;237;1089;-46
2021/04/12 03:20:30;;;;;;;;;;;17.90;42.40;;;;;;500383;237;1072;-45
2021/04/12 03:22:31;;;;;;;;;;;17.80;42.40;;;;;;500317;237;1291;-45
2021/04/12 03:24:33;;;;;;;;;;;17.80;42.50;;;;;;500421;237;2121;-45
2021/04/12 03:26:34;;;;;;;;;;;17.80;42.40;;;;;;500277;237;1086;-45
2021/04/12 03:28:35;;;;;;;;;;;17.80;42.50;;;;;;500581;237;1161;-46
2021/04/12 03:30:37;;;;;;;;;;;17.80;42.40;;;;;;500594;237;1129;-45
2021/04/12 03:32:38;;;;;;;;;;;17.80;42.40;;;;;;500429;237;1252;-45
2021/04/12 03:34:39;;;;;;;;;;;17.80;42.50;;;;;;500419;237;997;-45
2021/04/12 03:36:40;;;;;;;;;;;17.80;42.50;;;;;;500484;237;1137;-45
2021/04/12 03:38:44;;;;;;;;;;;17.80;42.50;;;;;;500598;237;1056;-45
2021/04/12 03:40:43;;;;;;;;;;;17.70;42.40;;;;;;500502;237;2282;-45
2021/04/12 03:42:45;;;;;;;;;;;17.70;42.50;;;;;;500692;237;1205;-45
2021/04/12 03:44:46;;;;;;;;;;;17.70;42.50;;;;;;500526;237;2152;-45
2021/04/12 03:46:47;;;;;;;;;;;17.70;42.50;;;;;;500305;237;1177;-45
2021/04/12 03:48:48;;;;;;;;;;;17.70;42.60;;;;;;500406;237;1045;-45
2021/04/12 03:50:50;;;;;;;;;;;17.70;42.50;;;;;;500405;237;1339;-45
2021/04/12 03:52:51;;;;;;;;;;;17.70;42.60;;;;;;500293;237;1129;-45
2021/04/12 03:54:52;;;;;;;;;;;17.60;42.70;;;;;;500695;237;1051;-45
2021/04/12 03:56:54;;;;;;;;;;;17.60;42.70;;;;;;500505;237;1245;-45
2021/04/12 03:58:55;;;;;;;;;;;17.60;42.70;;;;;;500699;237;1138;-45
2021/04/12 04:00:56;;;;;;;;;;;17.60;42.70;;;;;;500436;237;1528;-45
2021/04/12 04:02:57;;;;;;;;;;;17.60;42.70;;;;;;500464;237;1060;-45
2021/04/12 04:04:59;;;;;;;;;;;17.60;42.60;;;;;;500526;237;2145;-46
2021/04/12 04:07:00;;;;;;;;;;;17.60;42.70;;;;;;500381;237;1230;-45
2021/04/12 04:09:01;;;;;;;;;;;17.60;42.70;;;;;;500298;237;1057;-45
2021/04/12 04:11:02;;;;;;;;;;;17.60;42.60;;;;;;500286;237;1089;-45
2021/04/12 04:13:04;;;;;;;;;;;17.80;42.20;;;;;;500337;237;1047;-45
2021/04/12 04:15:05;;;;;;;;;;;18.20;41.30;;;;;;500366;237;1197;-46
2021/04/12 04:17:06;;;;;;;;;;;18.60;40.50;;;;;;500513;237;1403;-45
2021/04/12 04:19:08;;;;;;;;;;;18.80;39.90;;;;;;500358;237;1064;-45
2021/04/12 04:21:09;;;;;;;;;;;19.00;39.60;;;;;;500274;237;1240;-46
2021/04/12 04:23:11;;;;;;;;;;;19.20;39.30;;;;;;500583;237;1071;-46
2021/04/12 04:25:12;;;;;;;;;;;19.30;39.00;;;;;;500403;237;2120;-46
2021/04/12 04:27:13;;;;;;;;;;;19.40;38.90;;;;;;500191;237;1226;-46
2021/04/12 04:29:14;;;;;;;;;;;19.50;38.70;;;;;;500358;237;1293;-46
2021/04/12 04:31:24;;;;;;;;;;;19.50;38.60;;;;;;500261;237;1301;-46
2021/04/12 04:33:17;;;;;;;;;;;19.60;38.50;;;;;;500285;237;1371;-45
2021/04/12 04:35:19;;;;;;;;;;;19.70;38.40;;;;;;500418;237;1029;-45
2021/04/12 04:37:22;;;;;;;;;;;19.70;38.30;;;;;;500316;237;1127;-46
2021/04/12 04:39:22;;;;;;;;;;;19.70;38.20;;;;;;500088;237;1326;-46
2021/04/12 04:41:23;;;;;;;;;;;19.80;38.10;;;;;;500235;237;1240;-46
2021/04/12 04:43:24;;;;;;;;;;;19.80;38.00;;;;;;500378;237;1031;-46
2021/04/12 04:45:25;;;;;;;;;;;19.90;38.00;;;;;;500377;237;2172;-45
2021/04/12 04:47:27;;;;;;;;;;;19.90;37.90;;;;;;499872;237;1503;-46
2021/04/12 04:49:28;;;;;;;;;;;19.90;37.90;;;;;;500322;238;1181;-45
2021/04/12 04:51:29;;;;;;;;;;;19.90;37.80;;;;;;500214;237;1140;-45
2021/04/12 04:53:31;;;;;;;;;;;20.00;37.80;;;;;;500165;237;1098;-46
2021/04/12 04:55:32;;;;;;;;;;;20.00;37.70;;;;;;500221;237;1071;-46
2021/04/12 04:57:33;;;;;;;;;;;20.00;37.70;;;;;;500028;237;1191;-46
2021/04/12 04:59:35;;;;;;;;;;;20.00;37.60;;;;;;500206;237;1158;-46
2021/04/12 05:01:36;;;;;;;;;;;20.10;37.60;;;;;;500273;237;1048;-45
2021/04/12 05:03:37;;;;;;;;;;;20.10;37.60;;;;;;500146;237;1167;-46
2021/04/12 05:05:38;;;;;;;;;;;20.10;37.60;;;;;;500238;237;2149;-45
2021/04/12 05:07:40;;;;;;;;;;;20.10;37.50;;;;;;500102;237;1072;-45
2021/04/12 05:09:41;;;;;;;;;;;20.20;37.50;;;;;;500147;237;1104;-45
2021/04/12 05:11:42;;;;;;;;;;;20.20;37.50;;;;;;500266;237;1102;-46
2021/04/12 05:13:44;;;;;;;;;;;20.20;37.50;;;;;;500121;237;1086;-46
2021/04/12 05:15:45;;;;;;;;;;;20.20;37.40;;;;;;500087;237;1194;-46
2021/04/12 05:17:46;;;;;;;;;;;20.30;37.40;;;;;;500068;237;1384;-46
2021/04/12 05:19:47;;;;;;;;;;;20.30;37.40;;;;;;500332;237;1071;-46
2021/04/12 05:21:49;;;;;;;;;;;20.30;37.40;;;;;;499926;237;1242;-46
2021/04/12 05:23:50;;;;;;;;;;;20.30;37.30;;;;;;499927;237;1081;-46
2021/04/12 05:25:52;;;;;;;;;;;20.40;37.30;;;;;;499787;237;2179;-46
2021/04/12 05:27:53;;;;;;;;;;;20.40;37.30;;;;;;499951;237;1073;-45
2021/04/12 05:29:54;;;;;;;;;;;20.40;37.30;;;;;;499973;237;1143;-45
2021/04/12 05:31:55;;;;;;;;;;;20.40;37.20;;;;;;500031;237;1042;-45
2021/04/12 05:33:57;;;;;;;;;;;20.40;37.10;;;;;;499950;237;1009;-46
2021/04/12 05:35:58;;;;;;;;;;;20.40;37.10;;;;;;499901;237;1129;-46
2021/04/12 05:38:00;;;;;;;;;;;20.40;37.10;;;;;;499907;237;1101;-46
2021/04/12 05:40:01;;;;;;;;;;;20.50;37.10;;;;;;499856;237;1078;-46
2021/04/12 05:42:02;;;;;;;;;;;20.50;37.10;;;;;;499687;237;1229;-46
2021/04/12 05:44:03;;;;;;;;;;;20.50;37.00;;;;;;499934;237;1116;-46
2021/04/12 05:46:05;;;;;;;;;;;20.50;37.00;;;;;;499777;237;2184;-46
2021/04/12 05:48:06;;;;;;;;;;;20.50;37.00;;;;;;499901;237;1161;-46
2021/04/12 05:50:11;;;;;;;;;;;20.60;37.00;;;;;;499936;237;1042;-46
2021/04/12 05:52:09;;;;;;;;;;;20.60;36.90;;;;;;499882;237;1324;-46
2021/04/12 05:54:11;;;;;;;;;;;20.60;36.90;;;;;;499812;237;1211;-46
2021/04/12 05:56:12;;;;;;;;;;;20.60;36.90;;;;;;499572;237;1288;-46
2021/04/12 05:58:14;;;;;;;;;;;20.60;36.90;;;;;;499798;237;1075;-45
2021/04/12 06:00:15;;;;;;;;;;;20.60;36.90;;;;;;499822;237;1142;-46
2021/04/12 06:02:16;;;;;;;;;;;20.60;36.80;;;;;;499771;237;1288;-46
2021/04/12 06:04:18;;;;;;;;;;;20.60;36.80;;;;;;499835;237;1085;-46
2021/04/12 06:06:19;;;;;;;;;;;20.70;36.80;;;;;;499815;237;2176;-46
2021/04/12 06:08:20;;;;;;;;;;;20.60;36.80;;;;;;499776;237;1193;-46
2021/04/12 06:10:21;;;;;;;;;;;20.70;36.80;;;;;;499683;237;1144;-46
2021/04/12 06:12:23;;;;;;;;;;;20.70;36.70;;;;;;499690;237;1180;-47
2021/04/12 06:14:24;;;;;;;;;;;20.70;36.70;;;;;;499836;237;1119;-45
2021/04/12 06:16:25;;;;;;;;;;;20.70;36.70;;;;;;499618;237;1181;-46
2021/04/12 06:18:27;;;;;;;;;;;20.70;36.70;;;;;;499885;237;1189;-45
2021/04/12 06:20:28;;;;;;;;;;;20.70;36.70;;;;;;499696;237;1178;-45
2021/04/12 06:22:29;;;;;;;;;;;20.80;36.70;;;;;;499740;237;1155;-46
2021/04/12 06:24:30;;;;;;;;;;;20.80;36.70;;;;;;499715;237;1350;-46
2021/04/12 06:26:32;;;;;;;;;;;20.80;36.70;;;;;;499830;237;2175;-46
2021/04/12 06:28:33;;;;;;;;;;;20.80;36.60;;;;;;499798;237;1324;-46
2021/04/12 06:30:34;;;;;;;;;;;20.80;36.60;;;;;;499705;237;1220;-45
2021/04/12 06:32:36;;;;;;;;;;;20.80;36.70;;;;;;499699;237;1202;-45
2021/04/12 06:34:37;;;;;;;;;;;20.80;36.60;;;;;;499725;237;1047;-45
2021/04/12 06:36:38;;;;;;;;;;;20.80;36.60;;;;;;499705;237;1304;-46
2021/04/12 06:38:39;;;;;;;;;;;20.90;36.60;;;;;;499784;237;1116;-45
2021/04/12 06:40:41;;;;;;;;;;;20.80;36.60;;;;;;499611;237;1330;-46
2021/04/12 06:42:42;;;;;;;;;;;20.80;36.60;;;;;;499526;237;1094;-46
2021/04/12 06:44:43;;;;;;;;;;;20.90;36.50;;;;;;499611;237;1075;-46
2021/04/12 06:46:45;;;;;;;;;;;20.90;36.60;;;;;;499656;237;2188;-46
2021/04/12 06:48:46;;;;;;;;;;;20.90;36.50;;;;;;499737;237;1364;-46
2021/04/12 06:50:47;;;;;;;;;;;20.90;36.50;;;;;;499749;237;1176;-46
2021/04/12 06:52:48;;;;;;;;;;;20.90;36.50;;;;;;499752;237;1191;-46
2021/04/12 06:54:50;;;;;;;;;;;20.90;36.40;;;;;;499791;237;1068;-46
2021/04/12 06:56:51;;;;;;;;;;;20.90;36.50;;;;;;499580;237;1056;-46
2021/04/12 06:58:52;;;;;;;;;;;20.90;36.50;;;;;;499466;237;1064;-46
2021/04/12 07:00:54;;;;;;;;;;;20.90;36.50;;;;;;499539;237;1220;-46
2021/04/12 07:02:55;;;;;;;;;;;20.90;36.40;;;;;;499544;237;1087;-46
2021/04/12 07:04:56;;;;;;;;;;;20.90;36.40;;;;;;499712;237;1180;-45
2021/04/12 07:06:58;;;;;;;;;;;20.90;36.40;;;;;;499543;237;2179;-46
2021/04/12 07:08:59;;;;;;;;;;;20.90;36.40;;;;;;499578;237;1109;-46
2021/04/12 07:11:00;;;;;;;;;;;20.90;36.40;;;;;;499699;237;1215;-46
2021/04/12 07:13:01;;;;;;;;;;;20.90;36.40;;;;;;499736;237;1085;-46
2021/04/12 07:15:05;;;;;;;;;;;20.90;36.40;;;;;;499683;237;1057;-46
2021/04/12 07:17:04;;;;;;;;;;;21.00;36.40;;;;;;499836;237;1941;-46
2021/04/12 07:19:06;;;;;;;;;;;21.00;36.40;;;;;;499818;237;1068;-46
2021/04/12 07:21:07;;;;;;;;;;;21.00;36.30;;;;;;499681;237;1366;-46
2021/04/12 07:23:08;;;;;;;;;;;21.00;36.30;;;;;;499647;237;1116;-46
2021/04/12 07:25:10;;;;;;;;;;;21.00;36.30;;;;;;499406;237;2192;-45
2021/04/12 07:27:11;;;;;;;;;;;21.00;36.20;;;;;;499463;237;1218;-45
2021/04/12 07:29:12;;;;;;;;;;;21.00;36.20;;;;;;499763;237;1046;-46
2021/04/12 07:31:16;;;;;;;;;;;21.00;36.20;;;;;;499414;237;1199;-46
2021/04/12 07:33:17;;;;;;;;;;;21.00;36.20;;;;;;499437;237;2161;-46
2021/04/12 07:35:17;;;;;;;;;;;21.10;36.30;;;;;;499295;237;1677;-45
2021/04/12 07:37:18;;;;;;;;;;;21.00;36.20;;;;;;499317;237;1190;-46
2021/04/12 07:39:19;;;;;;;;;;;21.00;36.30;;;;;;499491;237;1343;-46
2021/04/12 07:41:22;;;;;;;;;;;21.10;36.30;;;;;;499579;237;1166;-46
2021/04/12 07:43:22;;;;;;;;;;;21.10;36.20;;;;;;499731;237;1684;-46
2021/04/12 07:45:24;;;;;;;;;;;21.10;36.10;;;;;;499589;237;2200;-45
2021/04/12 07:47:25;;;;;;;;;;;21.10;36.10;;;;;;499644;237;1237;-45
2021/04/12 07:49:26;;;;;;;;;;;21.20;36.10;;;;;;499584;237;1122;-46
2021/04/12 07:51:28;;;;;;;;;;;21.20;36.10;;;;;;499587;237;1637;-46
2021/04/12 07:53:28;;;;;;;;;;;21.20;35.90;;;;;;499805;237;1927;-46
2021/04/12 07:55:30;;;;;;;;;;;21.30;36.00;;;;;;499523;237;1074;-46
2021/04/12 07:57:31;;;;;;;;;;;21.20;36.10;;;;;;499556;237;1226;-46
2021/04/12 07:59:32;;;;;;;;;;;21.30;35.90;;;;;;499463;237;1076;-46
2021/04/12 08:01:34;;;;;;;;;;;21.00;36.20;;;;;;499281;237;1197;-46
2021/04/12 08:03:35;;;;;;;;;;;20.50;37.20;;;;;;500129;237;1021;-45
2021/04/12 08:05:36;;;;;;;;;;;20.10;38.20;;;;;;499647;237;2172;-45
2021/04/12 08:07:38;;;;;;;;;;;19.70;38.80;;;;;;499612;237;1200;-46
2021/04/12 08:09:39;;;;;;;;;;;19.50;39.40;;;;;;499682;237;1075;-46
2021/04/12 08:11:42;;;;;;;;;;;19.30;39.80;;;;;;499536;237;1288;-46
2021/04/12 08:13:42;;;;;;;;;;;19.20;40.10;;;;;;499635;237;2033;-45
2021/04/12 08:15:43;;;;;;;;;;;19.10;40.30;;;;;;499306;237;1124;-45
2021/04/12 08:17:44;;;;;;;;;;;19.10;40.30;;;;;;499444;237;1307;-45
2021/04/12 08:19:46;;;;;;;;;;;19.00;40.40;;;;;;499423;237;1100;-45
2021/04/12 08:21:47;;;;;;;;;;;19.00;40.60;;;;;;499389;237;1306;-45
2021/04/12 08:23:48;;;;;;;;;;;18.90;40.70;;;;;;499504;237;1104;-46
2021/04/12 08:25:50;;;;;;;;;;;18.90;40.80;;;;;;499548;237;2129;-45
2021/04/12 08:27:51;;;;;;;;;;;18.80;40.80;;;;;;499569;237;1107;-45
2021/04/12 08:29:52;;;;;;;;;;;18.80;40.80;;;;;;499594;237;1128;-45
2021/04/12 08:31:53;;;;;;;;;;;18.80;40.90;;;;;;499572;234;1322;-46
2021/04/12 08:33:55;;;;;;;;;;;18.80;40.90;;;;;;499649;237;1096;-45
2021/04/12 08:35:56;;;;;;;;;;;18.70;40.90;;;;;;499563;237;1143;-45
2021/04/12 08:37:57;;;;;;;;;;;18.70;41.00;;;;;;498729;238;1120;-45
2021/04/12 08:39:59;;;;;;;;;;;18.70;41.00;;;;;;499453;237;1216;-46
2021/04/12 08:42:00;;;;;;;;;;;18.60;41.10;;;;;;499418;237;1105;-45
2021/04/12 08:44:01;;;;;;;;;;;18.60;41.20;;;;;;499505;237;1050;-45
2021/04/12 08:46:03;;;;;;;;;;;18.60;41.30;;;;;;499454;237;2193;-45
2021/04/12 08:48:04;;;;;;;;;;;18.50;41.30;;;;;;499381;237;1191;-45
2021/04/12 08:50:05;;;;;;;;;;;18.50;41.30;;;;;;499277;237;1278;-45
2021/04/12 08:52:06;;;;;;;;;;;18.50;41.30;;;;;;499247;237;1084;-45
2021/04/12 08:54:08;;;;;;;;;;;18.50;41.40;;;;;;499453;237;1071;-45
2021/04/12 08:56:09;;;;;;;;;;;18.50;41.40;;;;;;499416;237;1068;-45
2021/04/12 08:58:10;;;;;;;;;;;18.50;41.40;;;;;;499519;237;1140;-46
2021/04/12 09:00:12;;;;;;;;;;;18.40;41.50;;;;;;499488;237;1051;-46
2021/04/12 09:02:13;;;;;;;;;;;18.40;41.40;;;;;;499397;237;1092;-45
2021/04/12 09:04:14;;;;;;;;;;;18.40;41.50;;;;;;499445;237;1285;-45
2021/04/12 09:06:15;;;;;;;;;;;18.40;41.60;;;;;;499603;237;2184;-45
2021/04/12 09:08:17;;;;;;;;;;;18.30;41.60;;;;;;499481;237;1062;-45
2021/04/12 09:10:18;;;;;;;;;;;18.30;41.60;;;;;;499437;237;1090;-45
2021/04/12 09:12:20;;;;;;;;;;;18.30;41.60;;;;;;499538;237;1195;-45
2021/04/12 09:14:21;;;;;;;;;;;18.30;41.60;;;;;;499642;237;1121;-46
2021/04/12 09:16:22;;;;;;;;;;;18.30;41.70;;;;;;499485;237;1427;-45
2021/04/12 09:18:24;;;;;;;;;;;18.30;41.70;;;;;;499468;237;1335;-45
2021/04/12 09:20:25;;;;;;;;;;;18.20;41.70;;;;;;499527;237;1063;-45
2021/04/12 09:22:26;;;;;;;;;;;18.20;41.80;;;;;;499776;237;1197;-45
2021/04/12 09:24:28;;;;;;;;;;;18.20;41.80;;;;;;499900;237;1130;-45
2021/04/12 09:26:29;;;;;;;;;;;18.20;41.80;;;;;;499304;237;2132;-45
2021/04/12 09:28:30;;;;;;;;;;;18.20;41.80;;;;;;499381;237;1262;-45
2021/04/12 09:30:32;;;;;;;;;;;18.20;41.80;;;;;;499318;237;1062;-45
2021/04/12 09:32:33;;;;;;;;;;;18.10;41.90;;;;;;499193;237;1269;-45
2021/04/12 09:34:34;;;;;;;;;;;18.20;41.80;;;;;;499335;237;1165;-45
2021/04/12 09:36:36;;;;;;;;;;;18.20;41.80;;;;;;499363;237;1134;-45
2021/04/12 09:38:38;;;;;;;;;;;18.10;41.90;;;;;;499300;237;1080;-45
2021/04/12 09:40:39;;;;;;;;;;;18.10;41.90;;;;;;499579;237;1106;-45
2021/04/12 09:42:40;;;;;;;;;;;18.10;42.00;;;;;;499505;237;1146;-45
2021/04/12 09:44:42;;;;;;;;;;;18.00;42.00;;;;;;499478;237;1098;-45
2021/04/12 09:46:43;;;;;;;;;;;18.00;42.00;;;;;;499444;237;2188;-45
2021/04/12 09:48:44;;;;;;;;;;;18.00;42.10;;;;;;499575;237;1139;-45
2021/04/12 09:50:46;;;;;;;;;;;18.00;42.00;;;;;;499530;237;1220;-45
2021/04/12 09:52:47;;;;;;;;;;;18.00;41.90;;;;;;499411;237;1195;-45
2021/04/12 09:54:49;;;;;;;;;;;18.00;42.00;;;;;;499303;237;1053;-45
2021/04/12 09:56:51;;;;;;;;;;;17.90;42.10;;;;;;499302;237;1267;-45
2021/04/12 09:58:51;;;;;;;;;;;18.00;42.10;;;;;;500139;237;1788;-45
2021/04/12 10:00:52;;;;;;;;;;;17.90;42.10;;;;;;499305;237;1150;-45
2021/04/12 10:02:54;;;;;;;;;;;17.90;42.10;;;;;;499635;237;1180;-45
2021/04/12 10:04:56;;;;;;;;;;;17.90;42.10;;;;;;499565;237;1194;-45
2021/04/12 10:06:57;;;;;;;;;;;17.90;42.10;;;;;;499447;237;2192;-45
2021/04/12 10:08:58;;;;;;;;;;;17.80;42.20;;;;;;499433;237;1205;-45
2021/04/12 10:11:00;;;;;;;;;;;17.80;42.20;;;;;;499389;237;1211;-45
2021/04/12 10:13:00;;;;;;;;;;;17.80;42.10;;;;;;499395;237;1146;-45
2021/04/12 10:15:02;;;;;;;;;;;17.80;42.20;;;;;;499483;237;1306;-45
2021/04/12 10:17:03;;;;;;;;;;;18.00;42.00;;;;;;499416;237;1236;-45
2021/04/12 10:19:04;;;;;;;;;;;18.40;41.10;;;;;;499384;237;1121;-45
2021/04/12 10:21:06;;;;;;;;;;;18.80;40.30;;;;;;499422;237;1298;-46
2021/04/12 10:23:07;;;;;;;;;;;19.00;39.60;;;;;;499204;237;1206;-45
2021/04/12 10:25:08;;;;;;;;;;;19.20;39.20;;;;;;498844;237;1095;-45
2021/04/12 10:27:09;;;;;;;;;;;19.40;38.90;;;;;;499109;237;2136;-45
2021/04/12 10:29:12;;;;;;;;;;;19.50;38.70;;;;;;499347;238;1118;-46
2021/04/12 10:31:14;;;;;;;;;;;19.60;38.50;;;;;;499421;237;1154;-46
2021/04/12 10:33:15;;;;;;;;;;;19.70;38.30;;;;;;499365;237;1149;-46
2021/04/12 10:35:16;;;;;;;;;;;19.70;38.10;;;;;;499438;237;1133;-46
2021/04/12 10:37:18;;;;;;;;;;;19.80;38.00;;;;;;499299;237;1184;-46
2021/04/12 10:39:19;;;;;;;;;;;19.80;38.00;;;;;;499451;237;1044;-45
2021/04/12 10:41:23;;;;;;;;;;;19.80;37.80;;;;;;499524;237;1346;-45
2021/04/12 10:43:21;;;;;;;;;;;19.90;37.80;;;;;;499616;237;1843;-45
2021/04/12 10:45:23;;;;;;;;;;;19.90;37.70;;;;;;499322;237;1063;-46
2021/04/12 10:47:24;;;;;;;;;;;20.00;37.70;;;;;;499210;237;2200;-46
2021/04/12 10:49:25;;;;;;;;;;;20.00;37.60;;;;;;499439;237;1084;-45
2021/04/12 10:51:26;;;;;;;;;;;20.00;37.60;;;;;;499377;237;1062;-45
2021/04/12 10:53:28;;;;;;;;;;;20.00;37.50;;;;;;499483;237;1109;-46
2021/04/12 10:55:29;;;;;;;;;;;20.00;37.40;;;;;;499539;237;1406;-46
2021/04/12 10:57:31;;;;;;;;;;;20.10;37.50;;;;;;499403;237;1576;-46
2021/04/12 10:59:32;;;;;;;;;;;20.10;37.40;;;;;;499392;237;1088;-46
2021/04/12 11:01:33;;;;;;;;;;;20.20;37.30;;;;;;499393;237;1060;-46
2021/04/12 11:03:35;;;;;;;;;;;20.20;37.30;;;;;;499350;237;1076;-46
2021/04/12 11:05:36;;;;;;;;;;;20.20;37.20;;;;;;499620;237;1233;-45
2021/04/12 11:07:37;;;;;;;;;;;20.20;37.20;;;;;;499676;237;2208;-45
2021/04/12 11:09:39;;;;;;;;;;;20.20;37.20;;;;;;499483;237;1160;-46
2021/04/12 11:11:40;;;;;;;;;;;20.20;37.10;;;;;;499400;237;1163;-45
2021/04/12 11:13:41;;;;;;;;;;;20.30;37.10;;;;;;499498;237;1147;-46
2021/04/12 11:15:43;;;;;;;;;;;20.30;37.10;;;;;;499426;237;1164;-45
2021/04/12 11:17:44;;;;;;;;;;;20.30;37.00;;;;;;499482;237;1214;-46
2021/04/12 11:19:45;;;;;;;;;;;20.40;36.90;;;;;;499468;237;1167;-46
2021/04/12 11:21:46;;;;;;;;;;;20.40;36.90;;;;;;499459;237;1332;-46
2021/04/12 11:23:48;;;;;;;;;;;20.40;36.90;;;;;;499573;237;1094;-46
2021/04/12 11:25:49;;;;;;;;;;;20.40;36.90;;;;;;499711;237;1113;-46
2021/04/12 11:27:50;;;;;;;;;;;20.50;36.80;;;;;;499679;237;2192;-46
2021/04/12 11:29:52;;;;;;;;;;;20.50;36.70;;;;;;499488;237;1096;-45
2021/04/12 11:31:53;;;;;;;;;;;20.50;36.70;;;;;;499712;237;1331;-46
2021/04/12 11:33:56;;;;;;;;;;;20.50;36.60;;;;;;500469;237;1314;-46
2021/04/12 11:35:55;;;;;;;;;;;20.60;36.60;;;;;;499829;237;1658;-46
2021/04/12 11:37:57;;;;;;;;;;;20.60;36.60;;;;;;499524;237;1147;-46
2021/04/12 11:39:58;;;;;;;;;;;20.60;36.50;;;;;;499428;237;1151;-46
2021/04/12 11:41:59;;;;;;;;;;;20.60;36.60;;;;;;499478;237;1112;-46
2021/04/12 11:44:01;;;;;;;;;;;20.60;36.60;;;;;;499366;237;1010;-45
2021/04/12 11:46:02;;;;;;;;;;;20.60;36.60;;;;;;499428;237;1071;-45
2021/04/12 11:48:05;;;;;;;;;;;20.60;36.60;;;;;;499515;237;2183;-46
2021/04/12 11:50:05;;;;;;;;;;;20.70;36.60;;;;;;499504;237;2035;-46
2021/04/12 11:52:06;;;;;;;;;;;20.60;36.50;;;;;;499406;237;1180;-46
2021/04/12 11:54:08;;;;;;;;;;;20.60;36.40;;;;;;499393;237;1123;-46
2021/04/12 11:56:09;;;;;;;;;;;20.60;36.40;;;;;;499246;237;1697;-46